首页
METAR-TAF:

METAR-TAF

机场 :

毛里求斯, 毛里求斯

西沃萨古尔·拉姆古兰爵士国际机场

纬度: 20-26S, 经度: 057-40E, 海拔: 55米

当前天气观测

该预报发布于1小时和2分钟前的21:00 UTC
风速26节,风向南转南东,有时为46节阵风
温度 25°C
湿度 100%
气压 996 hPa
能見度: 1000
少量云层高于500英尺
少量云层高于1100英尺, 积雨云.
多云层高于1200英尺
多云层高于4500英尺
附近有阵雨

METAR: FIMP 172100Z 16026G46KT 1000NW VCSH FEW005 FEW011CB BKN012 BKN045 25/25 Q0996

时间: 02:02 (22:02 UTC)

预报

该预报发布于4小时和47分钟前的17:15 UTC
预报有效从17日的 18点(UTC)到 19日的 00点(UTC)
风速20节,风向南转南东,有时为40节阵风
能見度: 6000
少量云层高于600英尺
多云层高于1400英尺
多云层高于5000英尺
小阵雨
短暂存在
从 17日的 18点(UTC)到 18日的 12点(UTC)
能見度: 2000
少量云层高于400英尺
少量云层高于1200英尺, 积雨云.
多云层高于1400英尺
多云层高于4500英尺
几率 30% :
短暂存在
从 18日的 00点(UTC)到 18日的 06点(UTC)
风速40节,风向南转南东,有时为60节阵风

TAF: FIMP 171715Z 1718/1900 15020G40KT 6000 -SHRA FEW006 BKN014 BKN050 TEMPO 1718/1812 2000 SHRA/TSRA FEW004 FEW012CB BKN014 BKN045 PROB30 TEMPO 1800/1806 16040G60KT

超过4000个机场的气象观测和天气预报(METAR&TAF报告)。

可查询的气象台以黄色和红色小点在地图上表示。

将鼠标移到小点上方,可查看气象台名称。

然后点击查看天气观测和预报。

如需切换地图:点击带黑十字的绿色按钮放大地图;点击带横线的绿色按钮缩小地图;或者点击绿色箭头查看邻近地区的地图。


METAR-TAF: